Milford, Utah Weather observations

Data are for observation ending at time listed.
 Day   Time    Ave.   Ave.  Ave.  Vector   Max.   Stn.    Total    Solar   Ave.  
  of    of     Air    Rel.  Wind   Wind    Wind   Baro.  Precip.   Rad.    Soil  
Year   Day     Temp.  Hum.  Speed  Dir.    Gust   Pres.                    Temp. 
2015   (MST)    F      %     mph   deg.    mph     mb.     in.     W/m2     F   
------------------------------------------------------------------------------
  85    5:20   24.4    45    0.5    56      1.9   853.4    0.00       0    52.2
  85    5:30   23.6    47    0.0     0      0.0   853.3    0.00       0    52.2
  85    5:40   24.5    48    0.0     0      0.0   853.2    0.00       0    52.2
  85    5:50   25.7    46    0.4   253      1.9   853.2    0.00       0    52.1
  85    6:00   27.0    44    0.8   253      2.3   853.2    0.00       0    52.1
  85    6:10   26.7    45    0.1   208      1.1   853.2    0.00       0    52.0
  85    6:20   25.5    46    0.1   154      0.7   853.3    0.00       0    52.0
  85    6:30   23.5    47    0.8   164      1.8   853.4    0.00       2    52.0
  85    6:40   22.6    50    0.0     0      0.0   853.4    0.00       6    51.9
  85    6:50   23.1    51    0.9   165      1.8   853.3    0.00      13    51.9
  85    7:00   24.4    50    1.0   167      1.8   853.4    0.00      53    51.8
  85    7:10   26.5    47    1.3   156      2.0   853.5    0.00      88    51.7
  85    7:20   27.9    45    1.0   164      2.1   853.7    0.00     120    51.7
  85    7:30   32.0    39    0.0     0      0.0   853.9    0.00     147    51.6
  85    7:40   33.7    35    0.6   213      2.5   854.1    0.00     171    51.5
  85    7:50   34.1    35    1.2   195      2.3   854.3    0.00     220    51.5
  85    8:00   35.6    33    1.4   144      2.5   854.5    0.00     255    51.5
  85    8:10   36.2    32    2.3   136      3.7   854.7    0.00     255    51.5
  85    8:20   36.1    33    2.8   140      3.9   854.9    0.00     301    51.6
  85    8:30   36.6    34    2.1   137      3.4   855.2    0.00     336    51.7
  85    8:40   39.6    32    0.8   140      2.9   855.2    0.00     358    51.9
  85    8:50   42.9    28    0.9    91      1.7   855.4    0.00     376    51.9
  85    9:00   44.1    26    2.3    42      4.7   855.6    0.00     403    52.0
  85    9:10   45.1    26    3.5    33      6.8   855.8    0.00     428    52.1
  85    9:20   46.5    26    2.8    44      5.5   856.1    0.00     435    52.2
  85    9:30   47.4    25    3.9    28      8.1   856.3    0.00     466    52.3
  85    9:40   48.2    24    4.4    30      8.6   856.5    0.00     489    52.4
  85    9:50   49.5    24    3.0    15      7.6   856.6    0.00     506    52.5
  85   10:00   50.7    22    3.4    15      7.7   856.8    0.00     530    52.6
  85   10:10   51.0    22    4.2    12      9.9   857.0    0.00     565    52.6
  85   10:20   51.4    22    5.3    20     11.2   857.1    0.00     589    52.6
  85   10:30   52.3    22    4.8    18      9.6   857.1    0.00     613    52.5
  85   10:40   53.5    22    4.1    16      9.0   857.2    0.00     625    52.5
  85   10:50   53.6    22    6.7    18     11.6   857.3    0.00     630    52.4
  85   11:00   54.7    22    4.5    14     11.8   857.3    0.00     664    52.4
  85   11:10   55.8    22    4.5    12     12.8   857.3    0.00     660    52.3
  85   11:20   55.5    24    6.7    16     13.6   857.2    0.00     681    52.2
  85   11:30   55.7    24    6.3    15     14.0   857.1    0.00     707    52.2
  85   11:40   56.9    25    4.9    11     12.2   857.1    0.00     713    52.2
  85   11:50   56.9    26    7.5    16     14.8   857.0    0.00     722    52.1
  85   12:00   57.1    26    8.4    17     17.3   857.0    0.00     729    52.0
  85   12:10   56.9    25    8.2    16     14.0   856.8    0.00     740    52.0
  85   12:20   58.1    24    7.3    16     15.0   856.7    0.00     668    51.9
  85   12:30   58.2    24    8.2    16     17.2   856.6    0.00     726    52.0
  85   12:40   58.2    24    9.7    17     18.0   856.5    0.00     736    51.8
  85   12:50   59.0    24   10.2    21     17.8   856.3    0.00     767    51.9
  85   13:00   59.6    24    7.0    10     14.2   856.4    0.00     663    51.9
  85   13:10   59.4    24    7.3    15     15.4   856.5    0.00     753    51.9
  85   13:20   59.7    24    7.7    15     14.5   856.5    0.00     751    51.9
  85   13:30   59.7    24    7.6    16     18.6   856.4    0.00     731    51.9
  85   13:40   59.5    24    7.4    13     13.5   856.3    0.00     751    51.8
  85   13:50   60.4    23    7.7    14     16.9   856.2    0.00     754    52.0
  85   14:00   60.4    23    9.4    17     17.1   856.1    0.00     716    51.9
  85   14:10   60.7    23    8.2    12     18.0   856.0    0.00     626    51.9
  85   14:20   60.7    23    8.1    14     17.9   855.9    0.00     692    51.9
  85   14:30   60.7    23    8.5    18     17.4   855.9    0.00     671    51.9
  85   14:40   60.7    23    7.8     8     16.3   855.7    0.00     629    51.9
  85   14:50   61.1    22    8.4    19     18.1   855.6    0.00     654    52.0
  85   15:00   60.9    22   10.4    23     18.3   855.6    0.00     603    52.0
  85   15:10   60.8    22    9.3    18     17.0   855.7    0.00     566    52.0
  85   15:20   60.9    22    8.2    14     15.6   855.6    0.00     555    52.1
  85   15:30   61.3    22    8.8    19     18.9   855.5    0.00     555    52.1
  85   15:40   61.1    22   10.0    22     18.0   855.3    0.00     523    52.2
  85   15:50   61.6    22    7.8    16     13.0   855.3    0.00     477    52.2
  85   16:00   61.8    21    9.2    18     15.0   855.3    0.00     472    52.2
  85   16:10   61.6    21    8.0    21     15.5   855.3    0.00     434    52.3
  85   16:20   61.2    22    8.9    18     15.1   855.2    0.00     425    52.3
  85   16:30   61.9    21    6.6    16     10.5   855.1    0.00     369    52.4
  85   16:40   61.6    22    7.6    17     14.9   855.0    0.00     370    52.4
  85   16:50   61.5    22    8.0    18     14.0   855.0    0.00     326    52.6
  85   17:00   61.6    22    5.9    12     11.5   854.9    0.00     304    52.4
  85   17:10   61.4    22    7.0    12     12.8   854.9    0.00     249    52.6
  85   17:20   61.1    22    7.1    20     11.8   854.8    0.00     231    52.6
  85   17:30   60.7    22    8.1    19     13.7   854.8    0.00     175    52.6
  85   17:40   60.2    22    6.7    14     12.3   854.7    0.00     163    52.7
  85   17:50   60.2    22    6.7    18     11.4   854.5    0.00      57    52.5
  85   18:00   59.6    22    7.5    18     11.7   854.3    0.00      21    52.6
  85   18:10   59.2    22    7.5    15     10.8   854.2    0.00      21    52.7
  85   18:20   58.7    23    6.6    17     10.6   854.1    0.00      19    52.7
  85   18:30   58.4    23    6.2    18      8.8   854.1    0.00      18    52.8
  85   18:40   57.9    24    4.7    13      6.9   854.0    0.00      12    52.8
  85   18:50   57.3    24    4.7    12      7.4   853.9    0.00       8    52.9
  85   19:00   56.6    25    3.3     7      6.6   853.9    0.00       4    53.0
  85   19:10   55.5    26    1.7   356      5.3   853.8    0.00       0    53.0
  85   19:20   53.8    28    1.0   358      3.8   853.8    0.00       0    53.0
  85   19:30   52.4    29    1.2   356      4.0   853.8    0.00       0    53.1
  85   19:40   51.5    30    0.8   344      1.9   853.8    0.00       0    53.1
  85   19:50   51.0    31    0.9   344      3.9   853.8    0.00       0    53.2
  85   20:00   50.6    31    1.0   346      3.3   853.8    0.00       0    53.2
  85   20:10   50.1    32    0.5   333      2.2   853.7    0.00       0    53.2
  85   20:20   49.5    33    0.6   313      1.9   853.7    0.00       0    53.3
  85   20:30   48.4    34    1.8   300      3.1   853.6    0.00       0    53.3
  85   20:40   47.3    35    1.9   303      3.1   853.5    0.00       0    53.3
  85   20:50   46.7    36    1.2   299      2.4   853.5    0.00       0    53.3
  85   21:00   45.8    37    1.4   303      2.6   853.5    0.00       0    53.4
  85   21:10   45.1    38    0.8    16      2.1   853.5    0.00       0    53.4
  85   21:20   44.1    39    1.2    44      2.3   853.5    0.00       0    53.4
  85   21:30   42.8    40    0.2    23      1.0   853.4    0.00       0    53.4
  85   21:40   42.4    42    0.9    28      1.9   853.4    0.00       0    53.4
  85   21:50   42.3    42    0.3    31      1.6   853.4    0.00       0    53.4
  85   22:00   41.7    42    0.8    26      2.4   853.4    0.00       0    53.5
  85   22:10   41.2    43    0.5   358      1.8   853.4    0.00       0    53.4
  85   22:20   41.2    44    0.6   317      1.8   853.4    0.00       0    53.5
  85   22:30   41.8    43    1.5   315      2.9   853.5    0.00       0    53.5
  85   22:40   38.8    47    1.0    57      1.8   853.5    0.00       0    53.5
  85   22:50   38.0    49    0.4    25      1.7   853.5    0.00       0    53.5
  85   23:00   38.7    49    0.9   294      1.8   853.4    0.00       0    53.5
  85   23:10   40.1    47    0.8   287      1.7   853.4    0.00       0    53.5
  85   23:20   39.9    46    0.2    36      1.0   853.4    0.00       0    53.5
  85   23:30   39.2    48    1.4   258      3.3   853.4    0.00       0    53.5
  85   23:40   39.5    47    1.0   306      2.9   853.4    0.00       0    53.5
  85   23:50   36.7    50    0.9    64      2.0   853.4    0.00       0    53.5
  86    0:00   34.4    54    0.0     0      0.0   853.3    0.00       0    53.5
  86    0:10   34.0    56    0.1   157      3.0   853.2    0.00       0    53.5
  86    0:20   33.6    54    1.6   175      3.2   853.1    0.00       0    53.5
  86    0:30   33.2    55    0.6   198      1.7   853.0    0.00       0    53.5
  86    0:40   33.5    57    0.0     0      0.0   852.9    0.00       0    53.5
  86    0:50   34.1    56    1.4   183      2.7   852.8    0.00       0    53.5
  86    1:00   33.1    59    1.2   208      2.9   852.8    0.00       0    53.4
  86    1:10   33.3    60    0.8   223      2.3   852.8    0.00       0    53.4
  86    1:20   33.5    60    0.3   246      1.8   852.7    0.00       0    53.4
  86    1:30   33.7    60    1.2   236      2.2   852.8    0.00       0    53.4
  86    1:40   33.7    60    1.0   244      1.8   852.8    0.00       0    53.3
  86    1:50   34.5    59    1.1   252      1.8   852.7    0.00       0    53.3
  86    2:00   36.2    56    0.3   243      1.2   852.7    0.00       0    53.3
  86    2:10   34.6    54    1.2    31      2.0   852.6    0.00       0    53.3
  86    2:20   31.6    59    1.3    16      2.3   852.6    0.00       0    53.3
  86    2:30   31.3    61    0.1    16      0.9   852.5    0.00       0    53.3
  86    2:40   31.2    62    0.0     0      0.0   852.4    0.00       0    53.2
  86    2:50   31.7    62    0.0     0      0.0   852.3    0.00       0    53.2
  86    3:00   32.6    62    1.5   263      2.4   852.2    0.00       0    53.2
  86    3:10   32.5    61    1.5   284      1.9   852.1    0.00       0    53.2
  86    3:20   32.7    61    1.0   278      1.9   852.1    0.00       0    53.1
  86    3:30   32.2    60    0.2    34      1.4   852.1    0.00       0    53.1
  86    3:40   30.6    59    0.3   186      1.4   852.0    0.00       0    53.1
  86    3:50   29.3    61    0.3   183      1.2   852.1    0.00       0    53.1
  86    4:00   30.0    64    0.2   251      1.2   852.0    0.00       0    53.0
  86    4:10   31.8    63    0.3   243      1.2   852.0    0.00       0    53.0
  86    4:20   32.9    63    0.6   228      1.3   852.0    0.00       0    53.0
  86    4:30   33.0    63    0.0   254      0.8   852.0    0.00       0    52.9
  86    4:40   32.4    62    0.5   256      1.4   852.1    0.00       0    52.9
  86    4:50   31.7    64    0.2   229      0.9   852.1    0.00       0    52.9
  86    5:00   29.8    63    0.8   184      1.8   852.0    0.00       0    52.8
  86    5:10   29.1    64    0.5   202      1.9   852.0    0.00       0    52.8

Return to Milford, Utah graphs page.


Western Regional Climate Center,wrcc@dri.edu